createdAt,value
2023-02-19T00:01:54.821Z,95159.21
2023-02-19T00:04:23.841Z,95149.49
2023-02-19T00:06:52.187Z,95150.36
2023-02-19T00:09:21.651Z,95153.56
2023-02-19T00:11:50.479Z,95157.73
2023-02-19T00:14:21.453Z,95165.20
2023-02-19T00:16:50.219Z,95177.55
2023-02-19T00:19:20.727Z,95177.74
2023-02-19T00:21:52.713Z,95181.52
2023-02-19T00:24:21.820Z,95180.63
2023-02-19T00:26:49.989Z,95181.42
2023-02-19T00:29:21.646Z,95187.92
2023-02-19T00:31:49.997Z,95191.52
2023-02-19T00:34:18.353Z,95200.88
2023-02-19T00:36:46.568Z,95200.08
2023-02-19T00:39:18.531Z,95198.23
2023-02-19T00:41:47.831Z,95204.19
2023-02-19T00:44:16.261Z,95204.59
2023-02-19T00:46:47.564Z,95200.38
2023-02-19T00:49:22.629Z,95202.63
2023-02-19T00:51:52.578Z,95206.95
2023-02-19T00:54:22.788Z,95211.30
2023-02-19T00:56:51.549Z,95208.14
2023-02-19T00:59:20.052Z,95206.93
2023-02-19T01:01:49.914Z,95207.82
2023-02-19T01:04:19.165Z,95207.81
2023-02-19T01:06:48.976Z,95209.83
2023-02-19T01:09:17.373Z,95206.35
2023-02-19T01:11:45.800Z,95210.69
2023-02-19T01:14:13.953Z,95206.98
2023-02-19T01:16:42.152Z,95203.52
2023-02-19T01:19:10.353Z,95205.27
2023-02-19T01:21:39.953Z,95198.59
2023-02-19T01:24:11.050Z,95194.76
2023-02-19T01:26:39.204Z,95190.95
2023-02-19T01:29:07.307Z,95189.35
2023-02-19T01:31:36.829Z,95189.05
2023-02-19T01:34:05.067Z,95184.92
2023-02-19T01:36:34.374Z,95184.76
2023-02-19T01:39:05.297Z,95188.38
2023-02-19T01:41:36.731Z,95191.30
2023-02-19T01:44:11.388Z,95195.84
2023-02-19T01:46:41.824Z,95199.08
2023-02-19T01:49:15.640Z,95195.73
2023-02-19T01:51:50.583Z,95203.71
2023-02-19T01:54:22.756Z,95200.75
2023-02-19T01:56:51.584Z,95204.73
2023-02-19T01:59:20.294Z,95205.02
2023-02-19T02:01:49.386Z,95207.88
2023-02-19T02:04:19.015Z,95210.40
2023-02-19T02:06:56.517Z,95216.13
2023-02-19T02:09:47.303Z,95217.65
2023-02-19T02:12:16.099Z,95210.91
2023-02-19T02:14:47.814Z,95207.91
2023-02-19T02:17:27.081Z,95210.73
2023-02-19T02:20:14.110Z,95214.02
2023-02-19T02:22:49.752Z,95212.44
2023-02-19T02:25:41.157Z,95218.68
2023-02-19T02:28:26.597Z,95222.95
2023-02-19T02:30:58.369Z,95227.88
2023-02-19T02:33:33.353Z,95228.86
2023-02-19T02:36:14.332Z,95230.38
2023-02-19T02:38:45.349Z,95232.48
2023-02-19T02:41:15.634Z,95233.85
2023-02-19T02:43:43.885Z,95237.31
2023-02-19T02:46:19.081Z,95244.89
2023-02-19T02:48:57.917Z,95251.40
2023-02-19T02:51:30.772Z,95255.00
2023-02-19T02:54:34.845Z,95255.75
2023-02-19T02:57:09.749Z,95253.39
2023-02-19T02:59:43.192Z,95262.66
2023-02-19T03:02:22.907Z,95265.85
2023-02-19T03:05:28.005Z,95267.90
2023-02-19T03:08:12.592Z,95267.54
2023-02-19T03:10:46.867Z,95269.30
2023-02-19T03:13:41.022Z,95267.92
2023-02-19T03:16:35.918Z,95266.14
2023-02-19T03:19:20.788Z,95265.80
2023-02-19T03:22:00.784Z,95262.13
2023-02-19T03:25:00.133Z,95263.84
2023-02-19T03:27:32.202Z,95263.23
2023-02-19T03:30:05.683Z,95258.17
2023-02-19T03:32:40.849Z,95257.30
2023-02-19T03:35:21.094Z,95250.85
2023-02-19T03:38:01.843Z,95253.04
2023-02-19T03:40:34.711Z,95256.42
2023-02-19T03:43:21.638Z,95255.97
2023-02-19T03:46:25.652Z,95258.19
2023-02-19T03:49:23.826Z,95251.15
2023-02-19T03:52:10.850Z,95244.94
2023-02-19T03:55:02.829Z,95248.39
2023-02-19T03:57:39.136Z,95249.33
2023-02-19T04:00:25.031Z,95246.91
2023-02-19T04:02:59.268Z,95247.55
2023-02-19T04:05:29.593Z,95242.94
2023-02-19T04:08:05.113Z,95246.41
2023-02-19T04:10:38.580Z,95251.66
2023-02-19T04:13:15.360Z,95256.43
2023-02-19T04:15:46.236Z,95259.27
2023-02-19T04:18:25.855Z,95261.95
2023-02-19T04:20:54.372Z,95262.74
2023-02-19T04:23:27.229Z,95263.33
2023-02-19T04:25:59.217Z,95263.45
2023-02-19T04:28:29.410Z,95264.48
2023-02-19T04:30:57.628Z,95268.20
2023-02-19T04:33:25.828Z,95275.73
2023-02-19T04:35:53.937Z,95278.10
2023-02-19T04:38:21.975Z,95280.04
2023-02-19T04:40:51.624Z,95282.02
2023-02-19T04:43:20.635Z,95286.88
2023-02-19T04:45:48.803Z,95284.05
2023-02-19T04:48:17.126Z,95281.48
2023-02-19T04:50:45.233Z,95283.23
2023-02-19T04:53:13.461Z,95281.03
2023-02-19T04:55:41.599Z,95277.64
2023-02-19T04:58:09.701Z,95276.26
2023-02-19T05:00:37.788Z,95275.89
2023-02-19T05:03:05.881Z,95274.16
2023-02-19T05:05:35.566Z,95272.59
2023-02-19T05:08:03.803Z,95272.79
2023-02-19T05:10:33.808Z,95276.00
2023-02-19T05:13:02.070Z,95281.46
2023-02-19T05:15:30.318Z,95279.30
2023-02-19T05:17:58.671Z,95274.84
2023-02-19T05:20:26.889Z,95274.08
2023-02-19T05:22:55.189Z,95276.71
2023-02-19T05:25:23.325Z,95271.51
2023-02-19T05:28:11.433Z,95273.60
2023-02-19T05:30:39.591Z,95270.91
2023-02-19T05:33:07.928Z,95268.83
2023-02-19T05:35:41.847Z,95268.48
2023-02-19T05:38:11.028Z,95263.40
2023-02-19T05:40:39.712Z,95257.44
2023-02-19T05:43:08.402Z,95256.61
2023-02-19T05:45:36.909Z,95260.59
2023-02-19T05:48:06.599Z,95262.25
2023-02-19T05:50:39.453Z,95261.61
2023-02-19T05:53:13.797Z,95258.89
2023-02-19T05:55:41.971Z,95257.38
2023-02-19T05:58:10.198Z,95246.53
2023-02-19T06:00:38.420Z,95237.71
2023-02-19T06:03:06.596Z,95235.83
2023-02-19T06:05:34.673Z,95228.02
2023-02-19T06:08:02.849Z,95229.55
2023-02-19T06:10:30.979Z,95229.80
2023-02-19T06:12:59.444Z,95234.23
2023-02-19T06:15:27.592Z,95231.77
2023-02-19T06:17:55.842Z,95246.69
2023-02-19T06:20:25.457Z,95247.26
2023-02-19T06:22:54.842Z,95242.97
2023-02-19T06:25:22.989Z,95248.61
2023-02-19T06:27:51.278Z,95253.63
2023-02-19T06:30:19.634Z,95260.52
2023-02-19T06:32:47.799Z,95261.20
2023-02-19T06:35:16.014Z,95265.95
2023-02-19T06:37:46.896Z,95260.53
2023-02-19T06:40:15.753Z,95258.66
2023-02-19T06:42:43.935Z,95257.70
2023-02-19T06:45:12.143Z,95244.09
2023-02-19T06:47:40.411Z,95240.27
2023-02-19T06:50:08.619Z,95232.43
2023-02-19T06:52:36.814Z,95232.23
2023-02-19T06:55:05.202Z,95227.17
2023-02-19T06:57:33.204Z,95223.13
2023-02-19T07:00:01.416Z,95213.74
2023-02-19T07:02:29.521Z,95210.93
2023-02-19T07:04:57.668Z,95218.31
2023-02-19T07:07:25.740Z,95222.73
2023-02-19T07:09:53.955Z,95226.09
2023-02-19T07:12:22.120Z,95224.64
2023-02-19T07:14:50.365Z,95223.19
2023-02-19T07:17:18.660Z,95214.08
2023-02-19T07:19:46.854Z,95211.23
2023-02-19T07:22:15.107Z,95202.70
2023-02-19T07:24:43.315Z,95207.73
2023-02-19T07:27:11.512Z,95212.86
2023-02-19T07:29:39.657Z,95214.73
2023-02-19T07:32:07.979Z,95218.70
2023-02-19T07:34:36.600Z,95215.16
2023-02-19T07:37:04.805Z,95218.91
2023-02-19T07:39:32.965Z,95205.59
2023-02-19T07:42:01.176Z,95205.23
2023-02-19T07:44:29.369Z,95197.08
2023-02-19T07:46:57.449Z,95195.05
2023-02-19T07:49:25.613Z,95195.36
2023-02-19T07:51:53.851Z,95190.52
2023-02-19T07:54:22.181Z,95193.60
2023-02-19T07:56:50.537Z,95184.20
2023-02-19T07:59:21.673Z,95175.67
2023-02-19T08:02:08.625Z,95173.14
2023-02-19T08:04:36.742Z,95166.75
2023-02-19T08:07:05.543Z,95156.88
2023-02-19T08:09:33.812Z,95144.37
2023-02-19T08:12:20.544Z,95145.96
2023-02-19T08:14:48.856Z,95145.86
2023-02-19T08:17:17.016Z,95143.96
2023-02-19T08:19:45.266Z,95141.52
2023-02-19T08:22:16.376Z,95135.18
2023-02-19T08:24:45.214Z,95133.15
2023-02-19T08:27:13.486Z,95142.88
2023-02-19T08:29:41.972Z,95145.45
2023-02-19T08:32:10.412Z,95139.80
2023-02-19T08:34:38.520Z,95136.27
2023-02-19T08:37:06.579Z,95135.73
2023-02-19T08:39:34.799Z,95140.44
2023-02-19T08:42:03.054Z,95136.78
2023-02-19T08:44:32.919Z,95136.24
2023-02-19T08:47:02.579Z,95139.02
2023-02-19T08:49:30.964Z,95135.11
2023-02-19T08:51:59.284Z,95134.26
2023-02-19T08:54:27.364Z,95140.50
2023-02-19T08:56:55.532Z,95138.91
2023-02-19T08:59:23.925Z,95136.61
2023-02-19T09:01:53.140Z,95132.73
2023-02-19T09:04:21.246Z,95130.61
2023-02-19T09:06:49.458Z,95126.25
2023-02-19T09:09:17.797Z,95129.44
2023-02-19T09:11:47.413Z,95123.29
2023-02-19T09:14:17.202Z,95128.56
2023-02-19T09:16:45.430Z,95124.28
2023-02-19T09:19:13.664Z,95120.50
2023-02-19T09:21:43.492Z,95115.77
2023-02-19T09:24:11.736Z,95116.25
2023-02-19T09:26:39.838Z,95114.47
2023-02-19T09:29:08.060Z,95118.09
2023-02-19T09:31:36.406Z,95113.58
2023-02-19T09:34:06.162Z,95113.23
2023-02-19T09:36:34.687Z,95109.25
2023-02-19T09:39:04.645Z,95108.55
2023-02-19T09:41:36.152Z,95104.41
2023-02-19T09:44:07.638Z,95112.77
2023-02-19T09:46:50.066Z,95119.26
2023-02-19T09:49:27.135Z,95129.80
2023-02-19T09:52:20.342Z,95129.08
2023-02-19T09:54:48.795Z,95126.84
2023-02-19T09:57:20.657Z,95121.89
2023-02-19T09:59:57.288Z,95114.80
2023-02-19T10:02:27.588Z,95105.37
2023-02-19T10:04:56.037Z,95103.39
2023-02-19T10:07:43.930Z,95094.98
2023-02-19T10:10:15.135Z,95085.23
2023-02-19T10:12:50.598Z,95097.45
2023-02-19T10:15:46.968Z,95099.34
2023-02-19T10:18:24.818Z,95094.26
2023-02-19T10:20:53.446Z,95100.98
2023-02-19T10:23:22.477Z,95101.62
2023-02-19T10:25:59.701Z,95095.11
2023-02-19T10:28:30.828Z,95089.39
2023-02-19T10:31:01.717Z,95082.93
2023-02-19T10:33:29.988Z,95075.64
2023-02-19T10:36:01.938Z,95078.51
2023-02-19T10:38:48.730Z,95066.51
2023-02-19T10:41:23.242Z,95057.27
2023-02-19T10:43:57.843Z,95045.28
2023-02-19T10:46:32.985Z,95043.85
2023-02-19T10:49:05.472Z,95047.81
2023-02-19T10:51:42.561Z,95053.48
2023-02-19T10:54:26.828Z,95043.95
2023-02-19T10:56:55.143Z,95039.79
2023-02-19T10:59:26.130Z,95038.73
2023-02-19T11:01:59.577Z,95040.04
2023-02-19T11:04:34.118Z,95053.36
2023-02-19T11:07:18.140Z,95055.75
2023-02-19T11:09:52.953Z,95055.46
2023-02-19T11:12:27.546Z,95058.38
2023-02-19T11:14:56.573Z,95044.94
2023-02-19T11:17:28.416Z,95039.41
2023-02-19T11:20:00.582Z,95033.37
2023-02-19T11:22:40.663Z,95046.23
2023-02-19T11:25:15.246Z,95043.77
2023-02-19T11:27:55.563Z,95043.55
2023-02-19T11:30:45.817Z,95040.05
2023-02-19T11:33:17.203Z,95041.36
2023-02-19T11:35:47.380Z,95044.67
2023-02-19T11:38:18.416Z,95041.54
2023-02-19T11:41:30.595Z,95044.27
2023-02-19T11:44:07.916Z,95048.50
2023-02-19T11:46:54.883Z,95045.05
2023-02-19T11:49:29.082Z,95046.64
2023-02-19T11:52:23.871Z,95043.48
2023-02-19T11:54:58.468Z,95043.45
2023-02-19T11:57:51.288Z,95047.70
2023-02-19T12:00:31.478Z,95042.52
2023-02-19T12:03:02.404Z,95037.15
2023-02-19T12:05:59.985Z,95033.16
2023-02-19T12:08:46.720Z,95039.03
2023-02-19T12:11:20.946Z,95028.45
2023-02-19T12:14:04.296Z,95037.08
2023-02-19T12:16:52.476Z,95035.65
2023-02-19T12:19:39.609Z,95041.02
2023-02-19T12:22:25.964Z,95053.19
2023-02-19T12:25:11.643Z,95062.67
2023-02-19T12:28:18.032Z,95064.67
2023-02-19T12:30:52.197Z,95072.27
2023-02-19T12:33:38.856Z,95076.41
2023-02-19T12:36:19.316Z,95090.29
2023-02-19T12:39:07.798Z,95091.97
2023-02-19T12:41:53.428Z,95089.81
2023-02-19T12:44:36.135Z,95081.88
2023-02-19T12:47:06.817Z,95066.80
2023-02-19T12:49:44.095Z,95064.08
2023-02-19T12:52:25.948Z,95069.34
2023-02-19T12:54:58.208Z,95070.14
2023-02-19T12:57:31.865Z,95072.13
2023-02-19T13:00:07.529Z,95069.58
2023-02-19T13:02:44.543Z,95076.36
2023-02-19T13:05:39.206Z,95076.38
2023-02-19T13:08:25.670Z,95069.79
2023-02-19T13:11:05.573Z,95061.57
2023-02-19T13:13:42.136Z,95046.13
2023-02-19T13:16:18.443Z,95037.38
2023-02-19T13:18:49.114Z,95031.83
2023-02-19T13:21:39.266Z,95026.14
2023-02-19T13:24:16.982Z,95022.27
2023-02-19T13:26:58.632Z,95016.89
2023-02-19T13:29:51.342Z,95017.02
2023-02-19T13:32:58.692Z,95008.14
2023-02-19T13:35:26.782Z,95003.98
2023-02-19T13:38:00.121Z,94987.67
2023-02-19T13:40:32.775Z,94974.87
2023-02-19T13:43:05.471Z,94973.52
2023-02-19T13:45:39.610Z,94975.75
2023-02-19T13:48:31.576Z,94972.27
2023-02-19T13:51:21.766Z,94977.58
2023-02-19T13:53:56.877Z,94976.67
2023-02-19T13:56:34.392Z,94975.86
2023-02-19T13:59:21.905Z,94975.55
2023-02-19T14:01:52.563Z,94970.09
2023-02-19T14:04:22.386Z,94972.06
2023-02-19T14:07:05.843Z,94964.91
2023-02-19T14:09:45.869Z,94962.71
2023-02-19T14:12:15.899Z,94968.38
2023-02-19T14:14:54.882Z,94968.24
2023-02-19T14:17:26.071Z,94960.91
2023-02-19T14:19:54.233Z,94963.95
2023-02-19T14:22:47.725Z,94961.50
2023-02-19T14:25:31.429Z,94967.60
2023-02-19T14:28:15.333Z,94967.16
2023-02-19T14:30:59.296Z,94973.51
2023-02-19T14:33:31.401Z,94971.46
2023-02-19T14:36:39.901Z,94967.48
2023-02-19T14:39:27.757Z,94957.54
2023-02-19T14:42:01.760Z,94953.96
2023-02-19T14:44:45.218Z,94934.64
2023-02-19T14:47:23.180Z,94925.69
2023-02-19T14:49:58.536Z,94920.64
2023-02-19T14:52:40.350Z,94922.34
2023-02-19T14:55:14.943Z,94908.17
2023-02-19T14:57:46.138Z,94908.91
2023-02-19T15:00:28.302Z,94890.61
2023-02-19T15:02:59.671Z,94887.73
2023-02-19T15:05:31.072Z,94890.73
2023-02-19T15:08:03.423Z,94898.20
2023-02-19T15:10:33.157Z,94908.15
2023-02-19T15:13:05.041Z,94911.54
2023-02-19T15:15:37.609Z,94911.33
2023-02-19T15:18:06.723Z,94908.08
2023-02-19T15:20:37.236Z,94918.11
2023-02-19T15:23:07.723Z,94935.36
2023-02-19T15:25:38.991Z,94968.63
2023-02-19T15:28:34.455Z,94975.84
2023-02-19T15:31:03.405Z,94972.11
2023-02-19T15:33:32.032Z,94964.58
2023-02-19T15:36:04.622Z,94959.80
2023-02-19T15:38:34.102Z,94969.63
2023-02-19T15:41:02.959Z,94961.98
2023-02-19T15:43:33.792Z,94968.94
2023-02-19T15:46:11.549Z,94968.27
2023-02-19T15:48:49.072Z,94955.46
2023-02-19T15:51:46.304Z,94956.66
2023-02-19T15:54:27.521Z,94955.09
2023-02-19T15:57:01.074Z,94965.45
2023-02-19T15:59:44.972Z,94962.02
2023-02-19T16:02:14.491Z,94935.80
2023-02-19T16:04:44.671Z,94942.46
2023-02-19T16:07:27.269Z,94950.83
2023-02-19T16:10:20.607Z,94943.10
2023-02-19T16:13:23.374Z,94936.40
2023-02-19T16:16:07.596Z,94934.48
2023-02-19T16:18:36.073Z,94931.64
2023-02-19T16:21:10.037Z,94921.55
2023-02-19T16:23:43.329Z,94920.55
2023-02-19T16:26:11.618Z,94921.17
2023-02-19T16:28:42.227Z,94919.23
2023-02-19T16:31:13.439Z,94905.31
2023-02-19T16:33:48.652Z,94924.80
2023-02-19T16:36:41.667Z,94957.40
2023-02-19T16:39:11.513Z,94978.06
2023-02-19T16:41:39.728Z,94968.50
2023-02-19T16:44:31.180Z,94974.66
2023-02-19T16:47:07.216Z,94981.75
2023-02-19T16:49:37.243Z,94981.16
2023-02-19T16:52:05.699Z,94984.54
2023-02-19T16:54:33.793Z,94993.61
2023-02-19T16:57:01.927Z,94988.44
2023-02-19T16:59:30.402Z,94983.27
2023-02-19T17:01:58.537Z,94984.19
2023-02-19T17:04:26.698Z,94983.90
2023-02-19T17:06:54.857Z,94984.69
2023-02-19T17:09:23.047Z,94985.59
2023-02-19T17:11:51.164Z,94980.95
2023-02-19T17:14:20.848Z,94977.34
2023-02-19T17:16:49.020Z,94973.71
2023-02-19T17:19:19.893Z,94972.23
2023-02-19T17:21:48.396Z,94973.63
2023-02-19T17:24:17.475Z,94975.80
2023-02-19T17:26:45.638Z,94984.52
2023-02-19T17:29:15.625Z,94986.61
2023-02-19T17:31:45.202Z,94991.33
2023-02-19T17:34:13.495Z,95002.20
2023-02-19T17:36:44.915Z,95004.97
2023-02-19T17:39:17.748Z,95005.89
2023-02-19T17:41:45.919Z,95008.52
2023-02-19T17:44:13.992Z,95016.23
2023-02-19T17:46:42.981Z,95019.71
2023-02-19T17:49:13.010Z,95020.34
2023-02-19T17:51:41.286Z,95016.52
2023-02-19T17:54:09.603Z,95017.89
2023-02-19T17:56:40.159Z,95019.21
2023-02-19T17:59:08.201Z,95008.05
2023-02-19T18:01:36.995Z,95017.46
2023-02-19T18:04:06.153Z,95011.18
2023-02-19T18:06:35.229Z,95003.27
2023-02-19T18:09:03.816Z,95007.51
2023-02-19T18:11:32.041Z,95014.77
2023-02-19T18:14:00.631Z,95016.85
2023-02-19T18:16:28.791Z,95009.61
2023-02-19T18:18:59.894Z,95002.50
2023-02-19T18:21:28.022Z,95001.95
2023-02-19T18:23:56.255Z,95012.15
2023-02-19T18:26:24.844Z,95014.98
2023-02-19T18:28:52.992Z,95024.77
2023-02-19T18:31:21.451Z,95044.45
2023-02-19T18:33:50.117Z,95058.56
2023-02-19T18:36:18.259Z,95072.66
2023-02-19T18:38:46.709Z,95081.48
2023-02-19T18:41:19.925Z,95084.81
2023-02-19T18:43:48.836Z,95085.83
2023-02-19T18:46:21.705Z,95094.02
2023-02-19T18:48:49.937Z,95101.48
2023-02-19T18:51:18.027Z,95097.52
2023-02-19T18:53:46.232Z,95097.40
2023-02-19T18:56:14.369Z,95105.13
2023-02-19T18:58:42.705Z,95112.84
2023-02-19T19:01:14.209Z,95113.55
2023-02-19T19:03:45.335Z,95123.11
2023-02-19T19:06:13.625Z,95129.70
2023-02-19T19:08:43.800Z,95134.99
2023-02-19T19:11:12.149Z,95137.48
2023-02-19T19:13:40.468Z,95143.73
2023-02-19T19:16:08.739Z,95148.56
2023-02-19T19:18:38.329Z,95151.61
2023-02-19T19:21:07.067Z,95166.94
2023-02-19T19:23:36.653Z,95180.48
2023-02-19T19:26:06.344Z,95187.92
2023-02-19T19:28:34.519Z,95196.70
2023-02-19T19:31:03.318Z,95210.46
2023-02-19T19:33:31.480Z,95222.89
2023-02-19T19:35:59.697Z,95229.60
2023-02-19T19:38:27.780Z,95231.61
2023-02-19T19:40:55.964Z,95240.03
2023-02-19T19:43:27.878Z,95246.64
2023-02-19T19:45:56.935Z,95252.64
2023-02-19T19:48:27.638Z,95258.70
2023-02-19T19:50:57.201Z,95263.04
2023-02-19T19:53:25.743Z,95266.75
2023-02-19T19:55:54.099Z,95275.64
2023-02-19T19:58:24.801Z,95280.43
2023-02-19T20:00:53.944Z,95292.73
2023-02-19T20:03:22.598Z,95287.17
2023-02-19T20:05:51.361Z,95285.42
2023-02-19T20:08:20.117Z,95283.56
2023-02-19T20:10:48.649Z,95282.50
2023-02-19T20:13:24.547Z,95290.63
2023-02-19T20:15:53.066Z,95291.92
2023-02-19T20:18:21.727Z,95291.17
2023-02-19T20:20:50.006Z,95288.73
2023-02-19T20:23:18.338Z,95292.38
2023-02-19T20:25:46.496Z,95296.77
2023-02-19T20:28:14.738Z,95306.20
2023-02-19T20:30:43.869Z,95310.76
2023-02-19T20:33:12.132Z,95310.88
2023-02-19T20:35:40.746Z,95314.02
2023-02-19T20:38:08.927Z,95317.26
2023-02-19T20:40:37.139Z,95322.64
2023-02-19T20:43:05.349Z,95319.36
2023-02-19T20:45:33.663Z,95321.77
2023-02-19T20:48:04.110Z,95327.53
2023-02-19T20:50:32.460Z,95333.85
2023-02-19T20:53:03.223Z,95338.70
2023-02-19T20:55:32.119Z,95347.30
2023-02-19T20:58:00.227Z,95347.54
2023-02-19T21:00:28.453Z,95362.25
2023-02-19T21:02:56.579Z,95368.80
2023-02-19T21:05:24.726Z,95369.68
2023-02-19T21:07:52.824Z,95376.02
2023-02-19T21:10:21.065Z,95387.80
2023-02-19T21:12:50.742Z,95394.63
2023-02-19T21:15:20.043Z,95401.10
2023-02-19T21:17:48.256Z,95404.17
2023-02-19T21:20:20.094Z,95408.81
2023-02-19T21:22:48.190Z,95423.62
2023-02-19T21:25:16.247Z,95438.01
2023-02-19T21:27:44.605Z,95435.85
2023-02-19T21:30:12.951Z,95442.45
2023-02-19T21:32:41.220Z,95454.19
2023-02-19T21:35:09.299Z,95458.80
2023-02-19T21:37:41.866Z,95458.45
2023-02-19T21:40:12.064Z,95464.83
2023-02-19T21:42:40.268Z,95476.11
2023-02-19T21:45:08.484Z,95479.66
2023-02-19T21:47:36.679Z,95479.05
2023-02-19T21:50:05.513Z,95473.60
2023-02-19T21:52:33.717Z,95478.13
2023-02-19T21:55:01.865Z,95480.06
2023-02-19T21:57:30.072Z,95485.54
2023-02-19T21:59:58.239Z,95491.02
2023-02-19T22:02:26.348Z,95500.52
2023-02-19T22:04:55.408Z,95514.17
2023-02-19T22:07:24.960Z,95515.19
2023-02-19T22:09:53.262Z,95519.49
2023-02-19T22:12:21.552Z,95521.02
2023-02-19T22:14:49.855Z,95527.86
2023-02-19T22:17:17.945Z,95537.19
2023-02-19T22:19:46.067Z,95538.85
2023-02-19T22:22:14.593Z,95538.95
2023-02-19T22:24:42.714Z,95544.95
2023-02-19T22:27:10.991Z,95551.91
2023-02-19T22:29:39.116Z,95550.41
2023-02-19T22:32:07.543Z,95553.42
2023-02-19T22:34:42.805Z,95551.58
2023-02-19T22:37:10.950Z,95557.13
2023-02-19T22:39:39.070Z,95557.08
2023-02-19T22:42:07.367Z,95560.45
2023-02-19T22:44:35.575Z,95564.48
2023-02-19T22:47:03.735Z,95568.38
2023-02-19T22:49:32.006Z,95576.61
2023-02-19T22:52:07.482Z,95574.80
2023-02-19T22:54:36.469Z,95573.81
2023-02-19T22:57:05.180Z,95575.75
2023-02-19T22:59:33.338Z,95567.36
2023-02-19T23:02:01.444Z,95566.79
2023-02-19T23:04:29.737Z,95570.89
2023-02-19T23:06:57.921Z,95576.43
2023-02-19T23:09:28.706Z,95574.88
2023-02-19T23:12:08.972Z,95578.77
2023-02-19T23:14:37.899Z,95578.34
2023-02-19T23:17:06.070Z,95577.02
2023-02-19T23:19:34.262Z,95573.29
2023-02-19T23:22:02.720Z,95577.46
2023-02-19T23:24:31.068Z,95581.02
2023-02-19T23:27:00.668Z,95579.27
2023-02-19T23:29:30.905Z,95578.73
2023-02-19T23:32:00.536Z,95583.31
2023-02-19T23:34:29.065Z,95583.95
2023-02-19T23:36:59.705Z,95592.20
2023-02-19T23:39:28.570Z,95602.60
2023-02-19T23:41:57.957Z,95609.27
2023-02-19T23:44:26.618Z,95622.60
2023-02-19T23:46:55.168Z,95630.56
2023-02-19T23:49:23.688Z,95641.06
2023-02-19T23:51:51.943Z,95645.51
2023-02-19T23:54:20.163Z,95646.38
2023-02-19T23:56:48.277Z,95651.34
2023-02-19T23:59:16.581Z,95655.75
